createdAt,value
2018-12-12T00:00:23.939Z,86.86
2018-12-12T00:03:12.131Z,85.52
2018-12-12T00:06:00.226Z,86.29
2018-12-12T00:08:46.848Z,85.01
2018-12-12T00:11:35.172Z,85.71
2018-12-12T00:14:21.927Z,86.20
2018-12-12T00:17:11.449Z,86.50
2018-12-12T00:23:20.685Z,87.00
2018-12-12T00:26:11.667Z,85.72
2018-12-12T00:32:11.796Z,86.70
2018-12-12T00:35:05.798Z,86.83
2018-12-12T00:38:00.869Z,87.13
2018-12-12T00:40:54.695Z,87.31
2018-12-12T00:43:43.417Z,85.82
2018-12-12T00:46:31.844Z,86.41
2018-12-12T00:49:21.853Z,86.61
2018-12-12T00:52:19.941Z,86.83
2018-12-12T00:55:07.290Z,87.05
2018-12-12T01:01:12.020Z,87.33
2018-12-12T01:04:00.569Z,87.23
2018-12-12T01:06:50.806Z,87.21
2018-12-12T01:09:38.320Z,87.21
2018-12-12T01:12:28.881Z,87.25
2018-12-12T01:15:16.331Z,87.29
2018-12-12T01:18:05.285Z,87.35
2018-12-12T01:20:52.628Z,87.42
2018-12-12T01:23:39.591Z,87.42
2018-12-12T01:26:27.167Z,87.55
2018-12-12T01:29:20.935Z,87.56
2018-12-12T01:32:15.569Z,87.58
2018-12-12T01:35:09.692Z,87.56
2018-12-12T01:37:58.340Z,87.67
2018-12-12T01:40:55.215Z,87.61
2018-12-12T01:43:46.618Z,87.58
2018-12-12T01:46:36.759Z,87.52
2018-12-12T01:49:24.200Z,87.38
2018-12-12T01:52:11.923Z,86.04
2018-12-12T01:54:59.071Z,86.45
2018-12-12T01:57:45.922Z,86.54
2018-12-12T02:00:32.796Z,86.63
2018-12-12T02:03:20.132Z,86.65
2018-12-12T02:06:07.298Z,86.66
2018-12-12T02:09:04.892Z,86.69
2018-12-12T02:12:01.969Z,86.73
2018-12-12T02:14:51.034Z,85.21
2018-12-12T02:17:37.977Z,85.63
2018-12-12T02:20:24.941Z,85.98
2018-12-12T02:23:11.738Z,86.12
2018-12-12T02:25:59.942Z,86.18
2018-12-12T02:28:47.007Z,86.24
2018-12-12T02:34:43.399Z,84.69
2018-12-12T02:40:39.520Z,85.42
2018-12-12T02:43:26.534Z,85.60
2018-12-12T02:46:13.201Z,85.71
2018-12-12T02:49:00.096Z,85.79
2018-12-12T02:51:47.373Z,85.89
2018-12-12T02:54:34.741Z,86.04
2018-12-12T02:57:23.083Z,86.07
2018-12-12T03:03:22.581Z,84.60
2018-12-12T03:06:10.160Z,85.22
2018-12-12T03:08:57.243Z,85.53
2018-12-12T03:11:47.743Z,84.39
2018-12-12T03:14:34.701Z,85.16
2018-12-12T03:17:24.370Z,85.54
2018-12-12T03:20:12.443Z,84.37
2018-12-12T03:22:59.519Z,85.06
2018-12-12T03:25:46.272Z,85.54
2018-12-12T03:28:33.316Z,85.95
2018-12-12T03:31:20.150Z,86.27
2018-12-12T03:34:07.780Z,86.60
2018-12-12T03:36:55.334Z,85.48
2018-12-12T03:39:42.935Z,84.73
2018-12-12T03:42:29.989Z,85.53
2018-12-12T03:45:17.792Z,85.98
2018-12-12T03:48:05.810Z,84.81
2018-12-12T03:50:53.419Z,85.73
2018-12-12T03:53:42.211Z,86.21
2018-12-12T03:56:29.428Z,86.58
2018-12-12T03:59:17.057Z,86.80
2018-12-12T04:02:03.773Z,87.00
2018-12-12T04:04:50.516Z,87.19
2018-12-12T04:07:37.428Z,87.40
2018-12-12T04:10:24.306Z,87.52
2018-12-12T04:13:10.913Z,87.69
2018-12-12T04:15:59.174Z,87.83
2018-12-12T04:18:46.316Z,87.92
2018-12-12T04:24:38.658Z,88.24
2018-12-12T04:27:28.643Z,88.40
2018-12-12T04:30:16.609Z,88.57
2018-12-12T04:33:05.002Z,87.28
2018-12-12T04:35:51.990Z,87.98
2018-12-12T04:38:39.288Z,88.27
2018-12-12T04:41:26.810Z,88.57
2018-12-12T04:44:13.606Z,88.72
2018-12-12T04:47:00.951Z,88.97
2018-12-12T04:49:48.716Z,89.06
2018-12-12T04:52:35.723Z,89.00
2018-12-12T04:55:22.752Z,87.74
2018-12-12T05:01:15.921Z,88.57
2018-12-12T05:04:02.922Z,88.77
2018-12-12T05:06:49.531Z,89.11
2018-12-12T05:09:37.183Z,89.23
2018-12-12T05:12:24.438Z,89.50
2018-12-12T05:15:11.399Z,89.55
2018-12-12T05:17:58.650Z,89.65
2018-12-12T05:20:46.200Z,89.65
2018-12-12T05:23:33.509Z,89.73
2018-12-12T05:26:21.019Z,89.85
2018-12-12T05:29:08.367Z,89.82
2018-12-12T05:31:55.856Z,89.88
2018-12-12T05:34:43.392Z,89.95
2018-12-12T05:37:30.748Z,90.02
2018-12-12T05:40:17.752Z,90.01
2018-12-12T05:43:05.263Z,90.04
2018-12-12T05:45:51.916Z,90.14
2018-12-12T05:48:39.019Z,88.81
2018-12-12T05:51:26.506Z,89.37
2018-12-12T05:54:17.105Z,89.62
2018-12-12T05:57:04.108Z,89.74
2018-12-12T06:02:57.089Z,90.01
2018-12-12T06:05:44.331Z,90.00
2018-12-12T06:08:32.033Z,90.12
2018-12-12T06:11:19.725Z,88.84
2018-12-12T06:14:07.848Z,89.37
2018-12-12T06:16:57.833Z,89.75
2018-12-12T06:19:45.544Z,89.95
2018-12-12T06:22:37.559Z,90.11
2018-12-12T06:25:20.491Z,90.29
2018-12-12T06:28:08.145Z,90.39
2018-12-12T06:30:55.803Z,90.59
2018-12-12T06:33:43.510Z,90.60
2018-12-12T06:36:31.070Z,90.69
2018-12-12T06:39:18.675Z,90.79
2018-12-12T06:42:15.459Z,90.82
2018-12-12T06:45:03.203Z,90.80
2018-12-12T06:47:53.142Z,90.66
2018-12-12T06:50:40.347Z,90.60
2018-12-12T06:56:33.154Z,90.61
2018-12-12T06:59:20.448Z,90.41
2018-12-12T07:02:07.975Z,90.31
2018-12-12T07:04:55.330Z,90.28
2018-12-12T07:07:42.582Z,90.29
2018-12-12T07:10:30.193Z,89.01
2018-12-12T07:13:17.428Z,89.36
2018-12-12T07:16:04.358Z,89.52
2018-12-12T07:18:51.403Z,89.54
2018-12-12T07:21:38.708Z,89.61
2018-12-12T07:24:26.402Z,89.65
2018-12-12T07:27:13.093Z,88.41
2018-12-12T07:30:00.174Z,88.87
2018-12-12T07:32:47.275Z,88.97
2018-12-12T07:35:34.376Z,89.03
2018-12-12T07:38:21.754Z,89.13
2018-12-12T07:41:08.966Z,89.16
2018-12-12T07:43:56.426Z,89.23
2018-12-12T07:46:43.327Z,89.23
2018-12-12T07:49:30.362Z,89.32
2018-12-12T07:52:17.563Z,87.97
2018-12-12T07:55:12.063Z,88.32
2018-12-12T07:57:58.729Z,88.47
2018-12-12T08:00:45.783Z,88.58
2018-12-12T08:03:32.637Z,88.62
2018-12-12T08:06:19.507Z,88.81
2018-12-12T08:09:06.524Z,88.87
2018-12-12T08:11:53.367Z,88.90
2018-12-12T08:14:40.282Z,87.55
2018-12-12T08:17:27.313Z,88.03
2018-12-12T08:23:21.070Z,88.21
2018-12-12T08:26:07.847Z,88.20
2018-12-12T08:28:55.479Z,88.20
2018-12-12T08:31:42.237Z,88.17
2018-12-12T08:34:29.041Z,88.13
2018-12-12T08:37:18.649Z,88.04
2018-12-12T08:40:05.298Z,86.38
2018-12-12T08:42:52.116Z,86.71
2018-12-12T08:45:39.182Z,86.65
2018-12-12T08:48:26.038Z,86.65
2018-12-12T08:51:12.903Z,86.47
2018-12-12T08:54:00.184Z,86.43
2018-12-12T08:56:46.769Z,86.05
2018-12-12T08:59:34.697Z,85.73
2018-12-12T09:02:21.921Z,85.62
2018-12-12T09:05:08.800Z,85.80
2018-12-12T09:07:55.660Z,85.69
2018-12-12T09:10:42.671Z,85.61
2018-12-12T09:13:29.800Z,85.81
2018-12-12T09:16:16.749Z,85.36
2018-12-12T09:22:09.950Z,85.01
2018-12-12T09:24:57.127Z,84.94
2018-12-12T09:27:43.831Z,84.85
2018-12-12T09:30:32.426Z,84.73
2018-12-12T09:33:24.521Z,82.71
2018-12-12T09:36:06.116Z,83.01
2018-12-12T09:38:53.191Z,83.17
2018-12-12T09:41:39.990Z,83.26
2018-12-12T09:44:27.309Z,83.58
2018-12-12T09:47:14.514Z,83.72
2018-12-12T09:50:01.223Z,83.88
2018-12-12T09:52:48.089Z,83.92
2018-12-12T09:55:35.045Z,84.07
2018-12-12T09:58:22.016Z,82.28
2018-12-12T10:01:08.687Z,82.32
2018-12-12T10:03:55.682Z,82.56
2018-12-12T10:06:42.813Z,82.89
2018-12-12T10:09:29.807Z,83.30
2018-12-12T10:12:16.927Z,81.73
2018-12-12T10:15:03.713Z,82.41
2018-12-12T10:17:50.691Z,82.79
2018-12-12T10:20:37.457Z,83.20
2018-12-12T10:23:39.863Z,83.55
2018-12-12T10:26:26.620Z,81.87
2018-12-12T10:29:17.445Z,80.61
2018-12-12T10:32:05.442Z,79.53
2018-12-12T10:34:50.966Z,78.91
2018-12-12T10:37:37.819Z,80.56
2018-12-12T10:43:30.979Z,80.98
2018-12-12T10:46:25.562Z,81.72
2018-12-12T10:49:12.268Z,82.21
2018-12-12T10:51:58.731Z,82.59
2018-12-12T10:54:45.686Z,80.87
2018-12-12T10:57:32.761Z,81.84
2018-12-12T11:00:20.884Z,82.28
2018-12-12T11:03:25.872Z,82.48
2018-12-12T11:06:12.788Z,82.53
2018-12-12T11:08:59.858Z,80.52
2018-12-12T11:11:47.003Z,81.42
2018-12-12T11:14:34.753Z,81.96
2018-12-12T11:17:21.467Z,82.20
2018-12-12T11:20:08.651Z,82.60
2018-12-12T11:22:56.056Z,82.91
2018-12-12T11:28:51.978Z,80.77
2018-12-12T11:31:40.240Z,81.65
2018-12-12T11:34:27.072Z,82.09
2018-12-12T11:37:14.525Z,82.30
2018-12-12T11:40:01.513Z,82.48
2018-12-12T11:42:48.135Z,82.61
2018-12-12T11:45:35.371Z,82.61
2018-12-12T11:48:22.451Z,82.44
2018-12-12T11:51:09.464Z,82.49
2018-12-12T11:53:56.683Z,82.49
2018-12-12T11:56:43.591Z,82.47
2018-12-12T11:59:31.526Z,82.31
2018-12-12T12:02:18.297Z,82.23
2018-12-12T12:05:05.214Z,82.16
2018-12-12T12:07:52.890Z,82.32
2018-12-12T12:10:39.639Z,82.54
2018-12-12T12:13:34.107Z,80.63
2018-12-12T12:16:21.330Z,81.42
2018-12-12T12:19:08.266Z,81.92
2018-12-12T12:21:55.116Z,82.20
2018-12-12T12:24:43.607Z,82.38
2018-12-12T12:27:31.284Z,82.70
2018-12-12T12:30:18.691Z,80.48
2018-12-12T12:33:08.656Z,81.16
2018-12-12T12:35:55.673Z,81.82
2018-12-12T12:38:42.808Z,79.93
2018-12-12T12:41:30.013Z,78.89
2018-12-12T12:44:17.306Z,80.32
2018-12-12T12:47:04.812Z,78.55
2018-12-12T12:49:53.450Z,77.69
2018-12-12T12:52:40.468Z,79.25
2018-12-12T12:55:27.971Z,80.13
2018-12-12T12:58:14.899Z,80.72
2018-12-12T13:04:09.775Z,81.38
2018-12-12T13:07:02.037Z,79.76
2018-12-12T13:09:48.837Z,80.64
2018-12-12T13:12:36.333Z,81.09
2018-12-12T13:15:23.693Z,81.36
2018-12-12T13:18:11.666Z,81.64
2018-12-12T13:20:59.052Z,82.02
2018-12-12T13:23:49.675Z,80.11
2018-12-12T14:16:38.140Z,84.05
2018-12-12T14:19:31.535Z,84.05
2018-12-12T14:22:19.482Z,84.04
2018-12-12T15:21:15.662Z,84.95
2018-12-12T15:27:08.249Z,84.37
2018-12-12T15:29:55.428Z,83.01
2018-12-12T15:32:42.317Z,83.52
2018-12-12T15:35:29.906Z,83.68
2018-12-12T15:38:16.981Z,84.00
2018-12-12T15:41:04.349Z,83.14
2018-12-12T15:43:51.395Z,83.93
2018-12-12T15:46:41.223Z,84.54
2018-12-12T15:49:29.529Z,84.87
2018-12-12T15:52:16.447Z,85.28
2018-12-12T15:55:03.189Z,85.48
2018-12-12T15:57:50.941Z,85.68
2018-12-12T16:00:38.159Z,85.93
2018-12-12T16:03:26.100Z,85.22
2018-12-12T16:06:13.144Z,85.96
2018-12-12T16:09:00.568Z,85.11
2018-12-12T16:11:47.771Z,85.96
2018-12-12T16:14:35.417Z,86.52
2018-12-12T16:17:23.286Z,85.53
2018-12-12T16:20:13.111Z,86.25
2018-12-12T16:23:00.417Z,86.84
2018-12-12T16:25:47.764Z,87.33
2018-12-12T16:28:35.871Z,86.22
2018-12-12T16:34:31.623Z,87.07
2018-12-12T16:37:20.317Z,87.21
2018-12-12T16:40:10.729Z,87.23
2018-12-12T16:42:58.724Z,87.25
2018-12-12T16:45:45.965Z,86.06
2018-12-12T16:48:32.747Z,86.45
2018-12-12T16:51:20.370Z,87.07
2018-12-12T16:54:07.590Z,87.40
2018-12-12T16:56:55.048Z,87.54
2018-12-12T17:02:48.983Z,88.55
2018-12-12T17:05:36.458Z,88.79
2018-12-12T17:08:23.656Z,87.90
2018-12-12T17:11:11.762Z,88.81
2018-12-12T17:14:40.726Z,88.86
2018-12-12T17:17:28.147Z,89.15
2018-12-12T17:20:25.972Z,89.33
2018-12-12T17:23:13.357Z,89.56
2018-12-12T17:26:13.219Z,89.64
2018-12-12T17:29:00.912Z,89.80
2018-12-12T17:31:48.720Z,90.00
2018-12-12T17:34:36.036Z,90.29
2018-12-12T17:37:23.398Z,90.29
2018-12-12T17:40:11.149Z,90.28
2018-12-12T17:43:03.415Z,90.27
2018-12-12T17:45:50.099Z,90.25
2018-12-12T17:51:42.840Z,90.22
2018-12-12T17:54:30.161Z,90.34
2018-12-12T17:57:17.812Z,90.51
2018-12-12T18:00:10.636Z,90.55
2018-12-12T18:02:58.083Z,90.55
2018-12-12T18:05:45.866Z,90.51
2018-12-12T18:08:33.438Z,90.62
2018-12-12T18:11:21.140Z,90.66
2018-12-12T18:14:07.989Z,90.81
2018-12-12T18:16:54.828Z,90.96
2018-12-12T18:19:43.955Z,90.87
2018-12-12T18:22:33.033Z,91.02
2018-12-12T18:25:21.554Z,91.12
2018-12-12T18:28:17.221Z,91.39
2018-12-12T18:31:04.903Z,91.59
2018-12-12T18:33:53.151Z,91.69
2018-12-12T18:36:40.549Z,91.74
2018-12-12T18:39:28.627Z,91.74
2018-12-12T18:42:15.973Z,91.59
2018-12-12T18:45:06.471Z,91.60
2018-12-12T18:47:54.258Z,91.21
2018-12-12T18:50:44.746Z,90.92
2018-12-12T18:53:42.234Z,89.73
2018-12-12T18:56:30.011Z,90.07
2018-12-12T18:59:16.951Z,90.26
2018-12-12T19:02:05.849Z,90.39
2018-12-12T19:04:55.996Z,89.01
2018-12-12T19:07:43.120Z,89.24
2018-12-12T19:10:41.804Z,89.23
2018-12-12T19:13:28.944Z,89.21
2018-12-12T19:16:16.120Z,89.15
2018-12-12T19:19:05.128Z,89.14
2018-12-12T19:21:52.648Z,89.26
2018-12-12T19:24:40.249Z,89.24
2018-12-12T19:27:27.964Z,89.48
2018-12-12T19:30:31.308Z,88.48
2018-12-12T19:33:18.669Z,88.89
2018-12-12T19:36:07.193Z,88.99
2018-12-12T19:38:54.184Z,89.12
2018-12-12T19:41:41.565Z,89.14
2018-12-12T19:44:28.732Z,89.47
2018-12-12T19:47:16.137Z,89.85
2018-12-12T19:50:24.573Z,90.16
2018-12-12T19:53:12.038Z,90.15
2018-12-12T19:55:59.274Z,90.00
2018-12-12T19:58:46.146Z,89.94
2018-12-12T20:01:34.504Z,89.88
2018-12-12T20:04:22.750Z,90.26
2018-12-12T20:07:10.618Z,90.29
2018-12-12T20:13:11.828Z,91.05
2018-12-12T20:15:59.380Z,91.34
2018-12-12T20:18:47.349Z,90.18
2018-12-12T20:21:34.282Z,90.48
2018-12-12T20:24:21.820Z,90.68
2018-12-12T20:27:09.358Z,90.64
2018-12-12T20:29:56.226Z,90.74
2018-12-12T20:32:42.829Z,90.93
2018-12-12T20:41:43.295Z,90.32
2018-12-12T20:44:30.752Z,90.78
2018-12-12T20:47:19.465Z,91.08
2018-12-12T20:50:08.136Z,91.20
2018-12-12T20:53:04.589Z,90.97
2018-12-12T20:55:51.427Z,90.90
2018-12-12T20:58:38.348Z,91.35
2018-12-12T21:01:25.661Z,91.67
2018-12-12T21:04:13.078Z,91.47
2018-12-12T21:07:00.326Z,91.41
2018-12-12T21:16:01.524Z,91.42
2018-12-12T21:18:48.744Z,91.23
2018-12-12T21:21:36.965Z,91.08
2018-12-12T21:24:23.833Z,90.97
2018-12-12T21:27:11.514Z,90.84
2018-12-12T21:30:01.307Z,90.85
2018-12-12T21:32:48.936Z,90.77
2018-12-12T21:35:37.948Z,90.62
2018-12-12T21:38:27.675Z,90.47
2018-12-12T21:41:23.870Z,90.39
2018-12-12T21:44:13.931Z,90.30
2018-12-12T21:47:09.751Z,90.23
2018-12-12T21:50:00.697Z,90.22
2018-12-12T21:52:50.185Z,90.15
2018-12-12T21:55:38.809Z,90.09
2018-12-12T21:58:27.594Z,89.99
2018-12-12T22:01:14.737Z,89.94
2018-12-12T22:04:03.711Z,89.97
2018-12-12T22:06:51.047Z,88.69
2018-12-12T22:09:41.136Z,88.98
2018-12-12T22:12:32.426Z,89.03
2018-12-12T22:15:22.609Z,88.98
2018-12-12T22:18:10.904Z,87.73
2018-12-12T22:21:05.209Z,88.05
2018-12-12T22:26:58.957Z,86.79
2018-12-12T22:29:46.226Z,87.18
2018-12-12T22:32:33.463Z,86.03
2018-12-12T22:35:23.105Z,86.54
2018-12-12T22:38:10.353Z,86.79
2018-12-12T22:40:59.411Z,86.97
2018-12-12T22:43:47.186Z,87.14
2018-12-12T22:46:35.699Z,87.26
2018-12-12T22:49:24.082Z,87.39
2018-12-12T22:52:11.899Z,87.49
2018-12-12T22:55:01.022Z,87.64
2018-12-12T22:57:48.892Z,87.80
2018-12-12T23:00:36.255Z,87.95
2018-12-12T23:06:29.598Z,88.18
2018-12-12T23:09:18.098Z,88.23
2018-12-12T23:12:05.847Z,88.28
2018-12-12T23:14:52.627Z,88.26
2018-12-12T23:17:39.333Z,88.25
2018-12-12T23:20:26.448Z,88.27
2018-12-12T23:23:14.381Z,88.15
2018-12-12T23:26:02.629Z,88.21
2018-12-12T23:28:50.185Z,88.27
2018-12-12T23:31:37.210Z,88.27
2018-12-12T23:34:23.960Z,88.21
2018-12-12T23:40:18.094Z,88.22
2018-12-12T23:43:05.001Z,88.16
2018-12-12T23:45:52.420Z,86.85
2018-12-12T23:48:39.785Z,87.26
2018-12-12T23:51:28.166Z,87.38
2018-12-12T23:54:15.265Z,87.48
2018-12-12T23:57:03.008Z,86.26
2018-12-12T23:59:50.719Z,85.30
